Time;durP1;ratioP1;P1;durP2;ratioP2;P2;SDS_P1;SDS_P2;PMS_P1;PMS_P2;Temp;Humidity;BMP_temperature;BMP_pressure;BME280_temperature;BME280_humidity;BME280_pressure;Samples;Min_cycle;Max_cycle;Signal;HPM_P1;HPM_P2
2024/02/01 00:00:30;;;;;;;14.00;9.67;;;2.20;99.90;;;;;;5011678;28;20225;-67
2024/02/01 00:02:57;;;;;;;10.67;8.20;;;2.30;99.90;;;;;;5011168;28;20205;-68
2024/02/01 00:05:24;;;;;;;11.43;8.07;;;2.30;99.90;;;;;;5010609;28;20581;-68
2024/02/01 00:07:52;;;;;;;11.50;7.93;;;2.30;99.90;;;;;;5011293;28;20260;-67
2024/02/01 00:10:19;;;;;;;15.30;9.37;;;2.30;99.90;;;;;;5018120;28;20267;-68
2024/02/01 00:12:46;;;;;;;15.43;9.20;;;2.30;99.90;;;;;;5031357;28;20216;-68
2024/02/01 00:15:13;;;;;;;12.30;8.97;;;2.20;99.90;;;;;;5031695;28;20628;-68
2024/02/01 00:17:40;;;;;;;16.53;9.17;;;2.30;99.90;;;;;;5034289;28;20291;-69
2024/02/01 00:20:08;;;;;;;11.57;9.30;;;2.20;99.90;;;;;;5032656;28;20235;-68
2024/02/01 00:22:35;;;;;;;12.97;9.43;;;2.30;99.90;;;;;;5014736;28;20229;-68
2024/02/01 00:25:04;;;;;;;15.53;8.70;;;2.30;99.90;;;;;;5015371;28;20213;-67
2024/02/01 00:27:31;;;;;;;14.77;10.23;;;2.30;99.90;;;;;;5015889;28;20255;-68
2024/02/01 00:29:58;;;;;;;10.53;8.03;;;2.30;99.90;;;;;;5016080;28;20225;-68
2024/02/01 00:32:44;;;;;;;13.87;10.20;;;2.30;99.90;;;;;;5017206;28;20201;-68
2024/02/01 00:35:11;;;;;;;12.37;9.67;;;2.50;99.90;;;;;;5015378;28;20291;-68
2024/02/01 00:37:38;;;;;;;12.37;8.53;;;2.60;99.90;;;;;;5015113;28;20213;-68
2024/02/01 00:40:07;;;;;;;11.53;7.50;;;2.40;99.90;;;;;;5014772;28;20221;-68
2024/02/01 00:42:34;;;;;;;8.90;7.00;;;2.30;99.90;;;;;;5014095;28;20271;-68
2024/02/01 00:45:01;;;;;;;11.40;7.87;;;2.20;99.90;;;;;;5015028;28;20589;-67
2024/02/01 00:47:28;;;;;;;13.93;8.27;;;2.50;99.90;;;;;;5014673;28;20210;-68
2024/02/01 00:49:55;;;;;;;11.97;8.43;;;2.30;99.90;;;;;;5014700;28;20225;-68
2024/02/01 00:52:22;;;;;;;12.40;7.23;;;2.00;99.90;;;;;;5014155;28;20626;-68
2024/02/01 00:54:49;;;;;;;12.77;7.13;;;2.10;99.90;;;;;;5014399;28;20228;-68
2024/02/01 00:57:18;;;;;;;7.10;6.27;;;2.00;99.90;;;;;;5014261;28;20205;-68
2024/02/01 00:59:45;;;;;;;11.77;6.53;;;1.90;99.90;;;;;;4994972;28;20227;-67
2024/02/01 01:02:13;;;;;;;11.23;8.20;;;2.00;99.90;;;;;;4993966;28;20225;-67
2024/02/01 01:04:40;;;;;;;7.40;6.10;;;2.00;99.90;;;;;;4994724;28;20206;-68
2024/02/01 01:07:07;;;;;;;9.30;6.67;;;1.90;99.90;;;;;;4994905;28;20202;-68
2024/02/01 01:09:34;;;;;;;12.57;7.47;;;1.90;99.90;;;;;;4994752;28;20206;-68
2024/02/01 01:12:01;;;;;;;8.77;6.60;;;2.10;99.90;;;;;;4993946;28;20206;-68
2024/02/01 01:14:29;;;;;;;8.97;6.67;;;2.10;99.90;;;;;;4997706;28;20739;-68
2024/02/01 01:16:56;;;;;;;9.00;5.70;;;2.00;99.90;;;;;;5014380;28;20300;-68
2024/02/01 01:19:23;;;;;;;7.57;6.17;;;2.20;99.90;;;;;;5014127;28;20247;-68
2024/02/01 01:21:51;;;;;;;5.30;4.80;;;2.20;99.90;;;;;;5013343;28;20226;-68
2024/02/01 01:24:18;;;;;;;5.30;4.70;;;2.30;99.90;;;;;;5017845;28;20201;-69
2024/02/01 01:26:45;;;;;;;7.30;6.10;;;2.20;99.90;;;;;;5014173;28;20206;-68
2024/02/01 01:29:12;;;;;;;7.30;6.27;;;2.30;99.90;;;;;;5013846;28;20214;-68
2024/02/01 01:31:42;;;;;;;12.80;5.83;;;2.40;99.90;;;;;;5012664;28;20771;-68
2024/02/01 01:34:09;;;;;;;9.83;7.17;;;2.30;99.90;;;;;;5014027;28;20205;-68
2024/02/01 01:36:36;;;;;;;11.47;6.97;;;2.40;99.90;;;;;;5013926;28;20204;-68
2024/02/01 01:39:03;;;;;;;11.90;6.60;;;2.40;99.90;;;;;;5013903;28;20201;-68
2024/02/01 01:41:29;;;;;;;8.30;6.90;;;2.20;99.90;;;;;;5017354;28;20282;-68
2024/02/01 01:43:56;;;;;;;8.50;7.37;;;2.20;99.90;;;;;;5013259;28;20206;-68
2024/02/01 01:46:25;;;;;;;10.07;5.90;;;2.20;99.90;;;;;;5013566;28;20205;-68
2024/02/01 01:48:53;;;;;;;7.87;6.93;;;2.20;99.90;;;;;;5005072;28;20201;-68
2024/02/01 01:51:20;;;;;;;7.47;6.10;;;2.10;99.90;;;;;;5013678;28;20222;-68
2024/02/01 01:53:49;;;;;;;9.93;5.97;;;2.20;99.90;;;;;;5012823;28;20205;-68
2024/02/01 01:56:17;;;;;;;9.27;6.60;;;2.30;99.90;;;;;;5013441;28;20209;-68
2024/02/01 01:58:46;;;;;;;7.90;5.83;;;2.40;99.90;;;;;;5011349;28;20202;-68
2024/02/01 02:01:13;;;;;;;6.93;6.30;;;2.50;99.90;;;;;;5013309;28;20228;-68
2024/02/01 02:03:42;;;;;;;10.00;6.10;;;2.70;99.90;;;;;;5010643;28;20205;-68
2024/02/01 02:06:10;;;;;;;9.47;6.60;;;2.60;99.90;;;;;;5012885;28;20263;-68
2024/02/01 02:08:38;;;;;;;8.53;7.00;;;2.80;99.90;;;;;;5013007;28;20210;-68
2024/02/01 02:11:05;;;;;;;6.60;5.90;;;3.00;99.90;;;;;;5013026;28;20230;-68
2024/02/01 02:13:32;;;;;;;12.93;7.30;;;2.70;99.90;;;;;;5012040;28;20275;-68
2024/02/01 02:15:59;;;;;;;8.40;6.17;;;2.80;99.90;;;;;;5013143;28;20213;-68
2024/02/01 02:18:26;;;;;;;9.07;6.00;;;2.60;99.90;;;;;;5013254;28;20246;-68
2024/02/01 02:20:56;;;;;;;6.17;5.77;;;2.50;99.90;;;;;;5013041;28;20271;-68
2024/02/01 02:23:24;;;;;;;9.77;7.47;;;2.50;99.90;;;;;;5011619;28;20712;-68
2024/02/01 02:25:51;;;;;;;7.63;6.20;;;2.50;99.90;;;;;;5012858;28;20671;-68
2024/02/01 02:28:18;;;;;;;7.13;6.43;;;2.50;99.90;;;;;;5013268;28;20208;-68
2024/02/01 02:30:45;;;;;;;8.57;6.83;;;2.60;99.90;;;;;;5013095;28;20274;-68
2024/02/01 02:33:12;;;;;;;8.73;7.83;;;2.60;99.90;;;;;;5012038;28;20212;-68
2024/02/01 02:35:39;;;;;;;10.13;6.73;;;2.80;99.90;;;;;;5012950;28;20209;-67
2024/02/01 02:38:06;;;;;;;12.03;7.13;;;2.80;99.90;;;;;;5012287;28;20272;-68
2024/02/01 02:40:34;;;;;;;8.50;6.43;;;2.80;99.90;;;;;;5011690;28;20259;-68
2024/02/01 02:43:02;;;;;;;10.77;7.07;;;2.90;99.90;;;;;;4994531;28;20222;-68
2024/02/01 02:45:28;;;;;;;7.10;6.07;;;2.70;99.90;;;;;;5006384;28;20284;-68
2024/02/01 02:47:57;;;;;;;13.07;6.33;;;2.80;99.90;;;;;;5012547;28;20209;-68
2024/02/01 02:50:24;;;;;;;6.30;5.23;;;2.80;99.90;;;;;;5012833;28;20222;-68
2024/02/01 02:52:51;;;;;;;7.40;6.43;;;2.70;99.90;;;;;;5017231;28;20834;-68
2024/02/01 02:55:18;;;;;;;6.07;5.47;;;2.90;99.90;;;;;;5032428;28;20203;-68
2024/02/01 02:57:46;;;;;;;7.10;6.07;;;2.90;99.90;;;;;;5031957;28;20212;-67
2024/02/01 03:00:18;;;;;;;6.33;5.33;;;2.80;99.90;;;;;;5032004;28;20225;-68
2024/02/01 03:02:47;;;;;;;6.73;5.50;;;2.80;99.90;;;;;;5031315;28;20311;-68
2024/02/01 03:05:16;;;;;;;6.27;5.23;;;2.80;99.90;;;;;;5031950;28;20208;-68
2024/02/01 03:07:43;;;;;;;7.07;5.33;;;2.80;99.90;;;;;;5031899;28;20201;-68
2024/02/01 03:10:10;;;;;;;5.73;5.17;;;3.00;99.90;;;;;;5019554;28;20779;-68
2024/02/01 03:12:40;;;;;;;5.30;4.80;;;2.80;99.90;;;;;;5011294;28;20232;-68
2024/02/01 03:15:09;;;;;;;6.43;5.77;;;3.00;99.90;;;;;;5012269;28;20628;-67
2024/02/01 03:17:37;;;;;;;8.30;6.00;;;3.00;99.90;;;;;;5012301;28;20305;-68
2024/02/01 03:20:17;;;;;;;8.43;5.30;;;2.90;99.90;;;;;;5011951;28;20229;-69
2024/02/01 03:22:45;;;;;;;6.57;5.40;;;3.10;99.90;;;;;;5011290;28;20312;-68
2024/02/01 03:25:12;;;;;;;4.53;4.13;;;3.00;99.90;;;;;;5011718;28;20646;-68
2024/02/01 03:27:42;;;;;;;5.60;4.90;;;2.90;99.90;;;;;;5031261;28;20743;-68
2024/02/01 03:30:12;;;;;;;7.13;4.77;;;3.30;99.90;;;;;;5032067;28;20600;-68
2024/02/01 03:32:40;;;;;;;4.60;4.20;;;3.10;99.90;;;;;;5031070;28;20291;-68
2024/02/01 03:35:08;;;;;;;5.27;4.77;;;3.30;99.90;;;;;;5031943;28;20263;-68
2024/02/01 03:37:35;;;;;;;4.63;4.20;;;3.20;99.90;;;;;;5031784;28;20255;-68
2024/02/01 03:40:02;;;;;;;6.27;4.57;;;3.40;99.90;;;;;;5031660;28;20287;-68
2024/02/01 03:42:29;;;;;;;5.70;4.03;;;3.30;99.90;;;;;;5023638;28;20214;-68
2024/02/01 03:44:56;;;;;;;5.37;4.30;;;3.50;99.90;;;;;;5011951;28;20255;-68
2024/02/01 03:47:24;;;;;;;4.83;4.13;;;3.50;99.90;;;;;;5012356;28;20306;-68
2024/02/01 03:49:51;;;;;;;5.67;4.50;;;3.60;99.90;;;;;;5012162;28;20225;-68
2024/02/01 03:52:20;;;;;;;6.53;5.27;;;3.60;99.90;;;;;;5014583;28;20673;-68
2024/02/01 03:54:47;;;;;;;4.73;2.77;;;3.60;99.90;;;;;;5015898;28;20217;-68
2024/02/01 03:57:19;;;;;;;6.93;4.07;;;3.70;99.90;;;;;;5015959;28;20692;-68
2024/02/01 03:59:46;;;;;;;5.30;3.77;;;3.80;99.90;;;;;;5015920;28;20205;-68
2024/02/01 04:02:14;;;;;;;4.83;3.70;;;3.90;99.90;;;;;;5015454;28;20235;-68
2024/02/01 04:04:45;;;;;;;7.23;4.60;;;3.90;99.90;;;;;;5013442;28;20300;-68
2024/02/01 04:07:17;;;;;;;4.67;3.40;;;4.00;99.90;;;;;;5015601;28;20209;-68
2024/02/01 04:09:45;;;;;;;5.03;4.50;;;3.90;99.90;;;;;;5014003;28;20210;-68
2024/02/01 04:12:13;;;;;;;5.50;4.00;;;4.00;99.90;;;;;;5014513;28;20265;-69
2024/02/01 04:14:40;;;;;;;5.53;4.17;;;3.80;99.90;;;;;;5015182;28;20220;-67
2024/02/01 04:17:07;;;;;;;4.97;3.77;;;3.70;99.90;;;;;;5015597;28;20206;-68
2024/02/01 04:19:34;;;;;;;5.57;3.77;;;3.80;99.90;;;;;;5015427;28;20276;-68
2024/02/01 04:22:02;;;;;;;3.30;3.10;;;3.70;99.90;;;;;;5014223;28;20708;-68
2024/02/01 04:24:29;;;;;;;7.47;4.47;;;3.80;99.90;;;;;;5014924;28;20209;-68
2024/02/01 04:26:56;;;;;;;4.33;3.37;;;3.70;99.90;;;;;;5015361;28;20336;-68
2024/02/01 04:29:23;;;;;;;5.00;3.73;;;3.80;99.90;;;;;;5015102;28;20640;-68
2024/02/01 04:31:50;;;;;;;5.63;3.60;;;3.80;99.90;;;;;;5012106;28;20594;-68
2024/02/01 04:34:17;;;;;;;9.10;4.23;;;3.70;99.90;;;;;;4995145;28;20265;-68
2024/02/01 04:36:44;;;;;;;7.83;4.20;;;3.70;99.90;;;;;;4995615;28;20274;-68
2024/02/01 04:39:13;;;;;;;5.83;3.70;;;3.80;99.90;;;;;;4995433;28;20726;-68
2024/02/01 04:41:40;;;;;;;6.60;4.07;;;3.70;99.90;;;;;;4994419;28;20261;-68
2024/02/01 04:44:10;;;;;;;2.97;2.60;;;3.80;99.90;;;;;;4995410;28;20626;-68
2024/02/01 04:46:37;;;;;;;4.47;3.73;;;3.90;99.90;;;;;;4995200;28;20666;-68
2024/02/01 04:49:11;;;;;;;3.03;2.83;;;3.90;99.90;;;;;;4996485;28;20206;-68
2024/02/01 04:51:39;;;;;;;6.03;2.57;;;4.10;99.90;;;;;;4994964;28;20600;-66
2024/02/01 04:54:06;;;;;;;2.83;2.20;;;4.30;99.90;;;;;;4997795;28;20202;-66
2024/02/01 04:56:36;;;;;;;4.70;2.07;;;4.50;99.90;;;;;;5002061;28;20209;-66
2024/02/01 04:59:03;;;;;;;2.57;2.10;;;4.70;99.90;;;;;;5013709;28;20199;-66
2024/02/01 05:01:31;;;;;;;3.27;2.47;;;4.70;99.90;;;;;;5014128;28;20229;-66
2024/02/01 05:03:58;;;;;;;4.13;2.67;;;4.70;99.90;;;;;;5012551;28;20316;-66
2024/02/01 05:06:25;;;;;;;3.00;2.17;;;4.70;99.90;;;;;;5014322;28;20699;-66
2024/02/01 05:08:53;;;;;;;3.97;2.33;;;4.80;99.90;;;;;;5016639;28;20632;-66
2024/02/01 05:11:20;;;;;;;4.53;2.10;;;4.70;99.90;;;;;;5014159;28;20286;-66
2024/02/01 05:13:48;;;;;;;2.63;1.83;;;4.90;99.90;;;;;;5013247;28;20216;-66
2024/02/01 05:16:15;;;;;;;2.40;2.23;;;5.00;99.90;;;;;;5013807;28;20258;-66
2024/02/01 05:18:42;;;;;;;4.80;2.43;;;5.10;99.90;;;;;;5013984;28;20648;-66
2024/02/01 05:21:09;;;;;;;4.60;2.43;;;5.00;99.90;;;;;;5013837;28;20224;-66
2024/02/01 05:23:36;;;;;;;4.80;2.30;;;5.00;99.90;;;;;;5016730;28;20826;-66
2024/02/01 05:26:03;;;;;;;4.53;2.73;;;5.00;99.90;;;;;;5013676;28;20719;-66
2024/02/01 05:28:33;;;;;;;2.70;1.47;;;5.00;99.90;;;;;;5013612;28;20210;-66
2024/02/01 05:31:01;;;;;;;2.13;2.00;;;5.10;99.90;;;;;;5013890;28;20313;-66
2024/02/01 05:33:29;;;;;;;4.50;2.20;;;5.40;99.90;;;;;;5012818;28;20205;-66
2024/02/01 05:35:55;;;;;;;8.00;2.50;;;5.10;99.90;;;;;;5013532;28;20676;-66
2024/02/01 05:38:22;;;;;;;6.83;2.87;;;5.10;99.90;;;;;;5013583;28;20201;-66
2024/02/01 05:40:49;;;;;;;5.30;1.70;;;4.90;99.90;;;;;;5010840;28;20705;-66
2024/02/01 05:43:16;;;;;;;2.93;1.47;;;5.00;99.90;;;;;;5012634;28;20217;-67
2024/02/01 05:45:43;;;;;;;1.83;1.73;;;5.00;99.90;;;;;;5013408;28;20655;-66
2024/02/01 05:48:12;;;;;;;5.07;2.43;;;5.10;99.90;;;;;;5013560;28;20272;-66
2024/02/01 05:50:39;;;;;;;4.93;2.13;;;5.00;99.90;;;;;;5013332;28;20224;-66
2024/02/01 05:53:09;;;;;;;2.77;2.30;;;5.00;99.90;;;;;;5012380;28;20197;-66
2024/02/01 05:55:36;;;;;;;2.83;1.93;;;5.00;99.90;;;;;;5016590;28;20241;-66
2024/02/01 05:58:05;;;;;;;3.67;2.20;;;4.90;99.90;;;;;;5013679;28;20274;-66
2024/02/01 06:00:32;;;;;;;6.80;3.17;;;4.90;99.90;;;;;;5012575;28;20227;-66
2024/02/01 06:02:59;;;;;;;5.00;3.00;;;4.90;99.90;;;;;;5012223;28;20268;-66
2024/02/01 06:05:27;;;;;;;5.53;2.40;;;4.70;99.90;;;;;;5013329;28;20197;-66
2024/02/01 06:07:54;;;;;;;1.83;1.73;;;4.80;99.90;;;;;;5010823;28;20272;-66
2024/02/01 06:10:21;;;;;;;6.37;2.00;;;4.60;99.90;;;;;;5012689;28;20224;-66
2024/02/01 06:12:48;;;;;;;2.43;2.03;;;4.70;99.90;;;;;;5013584;28;20479;-66
2024/02/01 06:15:15;;;;;;;5.57;2.40;;;4.80;99.90;;;;;;5012033;28;20720;-66
2024/02/01 06:17:42;;;;;;;2.73;2.17;;;4.60;99.90;;;;;;5012790;28;20685;-66
2024/02/01 06:20:11;;;;;;;4.20;2.63;;;4.70;99.90;;;;;;5012865;28;20220;-66
2024/02/01 06:22:40;;;;;;;4.17;3.60;;;4.70;99.90;;;;;;5011964;28;20217;-66
2024/02/01 06:25:11;;;;;;;3.33;3.03;;;4.80;99.90;;;;;;5012560;28;20200;-66
2024/02/01 06:27:38;;;;;;;6.30;3.13;;;4.70;99.90;;;;;;5012598;28;20666;-66
2024/02/01 06:30:10;;;;;;;7.43;3.70;;;4.80;99.90;;;;;;5012592;28;20231;-66
2024/02/01 06:32:37;;;;;;;6.80;4.20;;;4.70;99.90;;;;;;5010521;28;20677;-66
2024/02/01 06:35:06;;;;;;;3.83;3.43;;;4.70;99.90;;;;;;5012590;28;20622;-66
2024/02/01 06:37:35;;;;;;;8.93;5.13;;;4.80;99.90;;;;;;5012407;28;20284;-66
2024/02/01 06:40:37;;;;;;;5.82;2.92;;;5.00;99.90;;;;;;5009556;28;20435;-66
2024/02/01 06:43:11;;;;;;;3.50;2.00;;;5.10;99.90;;;;;;5011063;28;20597;-66
2024/02/01 06:45:45;;;;;;;3.00;2.30;;;5.10;99.90;;;;;;5012793;28;20226;-66
2024/02/01 06:48:12;;;;;;;2.47;1.73;;;5.10;99.90;;;;;;5011894;28;20671;-66
2024/02/01 06:50:54;;;;;;;7.40;2.20;;;5.20;99.90;;;;;;5012340;28;20287;-66
2024/02/01 06:53:23;;;;;;;2.83;2.03;;;5.10;99.90;;;;;;5011664;28;20201;-66
2024/02/01 06:55:57;;;;;;;2.13;1.60;;;5.10;99.90;;;;;;5023791;28;20287;-65
2024/02/01 06:58:39;;;;;;;3.73;1.10;;;5.20;99.90;;;;;;5032047;28;20865;-66
2024/02/01 07:01:23;;;;;;;3.13;1.60;;;5.30;99.90;;;;;;5031920;28;20270;-66
2024/02/01 07:04:07;;;;;;;3.90;2.30;;;5.40;99.90;;;;;;5015533;28;20310;-65
2024/02/01 07:06:38;;;;;;;3.73;1.63;;;5.50;99.90;;;;;;4992637;28;20697;-65
2024/02/01 07:09:27;;;;;;;2.10;1.90;;;5.50;99.90;;;;;;4992669;28;20252;-66
2024/02/01 07:12:15;;;;;;;3.40;1.90;;;5.50;99.90;;;;;;4991886;28;20703;-66
2024/02/01 07:14:48;;;;;;;4.00;1.97;;;5.50;99.90;;;;;;4992717;28;20211;-65
2024/02/01 07:17:27;;;;;;;3.10;1.83;;;5.50;99.90;;;;;;4992509;28;20226;-61
2024/02/01 07:19:56;;;;;;;3.67;1.83;;;5.40;99.90;;;;;;4994455;28;20525;-61
2024/02/01 07:23:00;;;;;;;3.93;2.47;;;5.30;99.90;;;;;;4999703;28;20568;-75
2024/02/01 07:25:48;;;;;;;12.93;3.33;;;5.50;99.90;;;;;;5012004;28;20213;-59
2024/02/01 07:58:38;;;;;;;2.87;2.67;;;5.40;99.90;;;;;;5010861;28;20290;-57
2024/02/01 08:01:14;;;;;;;2.80;2.57;;;5.00;99.90;;;;;;5010738;28;20224;-57
2024/02/01 08:03:58;;;;;;;3.53;3.20;;;5.00;99.90;;;;;;5010231;28;20224;-58
2024/02/01 08:09:12;;;;;;;6.27;3.17;;;5.00;99.90;;;;;;5011681;28;20669;-58
2024/02/01 08:11:41;;;;;;;3.63;3.30;;;5.10;99.90;;;;;;4999001;28;20777;-57
2024/02/01 08:14:08;;;;;;;5.50;4.00;;;5.00;99.90;;;;;;4989776;28;20213;-58
2024/02/01 08:16:39;;;;;;;6.30;3.27;;;5.10;99.90;;;;;;4992119;28;20205;-58
2024/02/01 08:19:06;;;;;;;5.33;3.40;;;5.10;99.90;;;;;;4990237;28;20295;-57
2024/02/01 08:21:37;;;;;;;6.13;3.67;;;5.10;99.90;;;;;;4994582;28;20322;-58
2024/02/01 08:24:05;;;;;;;3.97;3.27;;;5.20;99.90;;;;;;4991598;28;20219;-58
2024/02/01 08:26:37;;;;;;;5.17;3.00;;;5.20;99.90;;;;;;4992111;28;20692;-57
2024/02/01 08:29:06;;;;;;;6.20;3.57;;;5.30;99.90;;;;;;4993399;28;20668;-58
2024/02/01 08:31:36;;;;;;;3.60;3.13;;;5.20;99.90;;;;;;4991833;28;20249;-58
2024/02/01 08:34:07;;;;;;;8.03;3.13;;;5.30;99.90;;;;;;4991680;28;20212;-58
2024/02/01 08:36:34;;;;;;;6.47;3.37;;;5.40;99.90;;;;;;4992142;28;20580;-58
2024/02/01 08:39:01;;;;;;;5.00;3.57;;;5.30;99.90;;;;;;4997309;28;20211;-58
2024/02/01 08:41:35;;;;;;;4.83;3.60;;;5.20;99.90;;;;;;4995093;28;20770;-58
2024/02/01 08:44:02;;;;;;;4.23;3.17;;;5.20;99.90;;;;;;4996820;28;20666;-57
2024/02/01 08:46:29;;;;;;;2.90;2.70;;;5.10;99.90;;;;;;5003695;28;20626;-58
2024/02/01 08:48:56;;;;;;;4.57;3.57;;;5.10;99.90;;;;;;5014684;28;20205;-58
2024/02/01 08:51:24;;;;;;;6.73;3.03;;;5.10;99.90;;;;;;5014424;28;20221;-58
2024/02/01 08:53:52;;;;;;;5.10;3.00;;;5.20;99.90;;;;;;5013687;28;20579;-58
2024/02/01 08:56:20;;;;;;;4.10;3.70;;;4.50;99.90;;;;;;5014456;28;20625;-58
2024/02/01 08:58:47;;;;;;;5.00;3.00;;;5.10;99.90;;;;;;5014635;28;20207;-58
2024/02/01 09:01:22;;;;;;;3.43;2.70;;;5.00;99.90;;;;;;5007404;28;20284;-58
2024/02/01 09:03:50;;;;;;;3.57;3.27;;;5.10;99.90;;;;;;4995131;28;20221;-58
2024/02/01 09:06:17;;;;;;;4.43;2.60;;;5.00;99.90;;;;;;4994931;28;20244;-58
2024/02/01 09:08:45;;;;;;;4.53;3.37;;;5.10;99.90;;;;;;4994986;28;20209;-57
2024/02/01 09:11:14;;;;;;;3.67;3.10;;;5.20;99.90;;;;;;4994451;28;20226;-57
2024/02/01 09:13:43;;;;;;;5.10;4.50;;;5.20;99.90;;;;;;4993781;28;20212;-57
2024/02/01 09:16:11;;;;;;;8.77;6.60;;;5.20;99.90;;;;;;4994544;28;20695;-60
2024/02/01 09:18:38;;;;;;;10.10;5.23;;;5.20;99.90;;;;;;4996324;28;20257;-59
2024/02/01 09:21:05;;;;;;;5.30;4.80;;;5.30;99.90;;;;;;4994593;28;20316;-58
2024/02/01 09:23:32;;;;;;;4.83;3.37;;;5.30;99.90;;;;;;4993588;28;20226;-59
2024/02/01 09:26:00;;;;;;;5.87;3.30;;;5.30;99.90;;;;;;4994278;28;20682;-59
2024/02/01 09:28:27;;;;;;;7.00;3.70;;;5.10;99.90;;;;;;4994338;28;20591;-59
2024/02/01 09:30:55;;;;;;;9.13;3.93;;;5.10;99.90;;;;;;4994128;28;20261;-58
2024/02/01 09:33:24;;;;;;;12.33;4.53;;;4.90;99.90;;;;;;4993850;28;20634;-58
2024/02/01 09:35:52;;;;;;;6.57;3.53;;;4.90;99.90;;;;;;5013248;28;20255;-59
2024/02/01 09:38:19;;;;;;;5.37;3.33;;;5.00;99.90;;;;;;5013887;28;20256;-58
2024/02/01 09:40:47;;;;;;;8.43;5.93;;;4.90;99.90;;;;;;5013464;28;20224;-59
2024/02/01 09:43:20;;;;;;;10.67;4.37;;;5.10;99.90;;;;;;5012621;28;20205;-59
2024/02/01 09:45:47;;;;;;;5.63;3.53;;;5.00;99.90;;;;;;5013930;28;20275;-59
2024/02/01 09:48:17;;;;;;;13.07;4.23;;;5.00;99.90;;;;;;5013578;28;20205;-59
2024/02/01 09:50:53;;;;;;;3.23;2.97;;;4.90;99.90;;;;;;5008388;28;20270;-59
2024/02/01 09:53:22;;;;;;;3.90;3.58;;;4.90;99.90;;;;;;4990838;28;20441;-59
2024/02/01 09:55:50;;;;;;;5.27;3.47;;;5.10;99.90;;;;;;4993270;28;20300;-69
2024/02/01 09:58:18;;;;;;;6.00;2.90;;;5.10;99.90;;;;;;4993411;28;20644;-69
2024/02/01 10:00:46;;;;;;;7.77;3.20;;;5.30;99.90;;;;;;4993615;28;20237;-69
2024/02/01 10:03:13;;;;;;;3.83;3.40;;;5.30;99.90;;;;;;4992842;28;20256;-70
2024/02/01 10:05:41;;;;;;;4.30;3.60;;;5.40;99.90;;;;;;4993939;28;20662;-67
2024/02/01 10:08:13;;;;;;;8.63;3.63;;;5.50;99.90;;;;;;4994834;28;20267;-64
2024/02/01 10:10:41;;;;;;;10.93;3.90;;;5.50;99.90;;;;;;4993636;28;20659;-64
2024/02/01 10:13:13;;;;;;;5.47;3.60;;;5.60;99.90;;;;;;4992432;28;20593;-66
2024/02/01 10:15:44;;;;;;;9.30;4.43;;;5.60;99.90;;;;;;4993878;28;20215;-61
2024/02/01 10:18:15;;;;;;;9.33;4.97;;;5.70;99.90;;;;;;4991164;28;20297;-62
2024/02/01 10:20:48;;;;;;;7.87;4.20;;;5.80;99.90;;;;;;4993396;28;20604;-65
2024/02/01 10:23:15;;;;;;;6.07;3.73;;;5.80;99.90;;;;;;4992172;28;20209;-65
2024/02/01 10:25:45;;;;;;;4.53;3.10;;;5.90;99.90;;;;;;4993581;28;20206;-61
2024/02/01 10:28:16;;;;;;;3.67;3.37;;;6.00;99.90;;;;;;4993295;28;20201;-63
2024/02/01 10:30:45;;;;;;;6.23;3.70;;;5.90;99.90;;;;;;4993230;28;20259;-63
2024/02/01 10:33:13;;;;;;;3.93;2.57;;;5.80;99.90;;;;;;4992208;28;20682;-63
2024/02/01 10:35:42;;;;;;;7.30;3.20;;;6.10;99.90;;;;;;4993045;28;20678;-64
2024/02/01 10:38:13;;;;;;;6.23;3.23;;;6.00;99.90;;;;;;4993253;28;20325;-64
2024/02/01 10:41:02;;;;;;;2.87;2.67;;;6.00;99.90;;;;;;4994813;28;20648;-64
2024/02/01 10:43:30;;;;;;;7.47;3.40;;;5.90;99.90;;;;;;4991929;28;20209;-64
2024/02/01 10:46:06;;;;;;;5.20;4.23;;;5.90;99.90;;;;;;4993522;28;20277;-67
2024/02/01 10:48:36;;;;;;;9.33;4.00;;;5.80;99.90;;;;;;4993980;28;20200;-61
2024/02/01 10:51:09;;;;;;;8.30;3.90;;;5.80;99.90;;;;;;4993402;28;20226;-64
2024/02/01 10:53:41;;;;;;;4.67;3.73;;;5.80;99.90;;;;;;4992343;28;20207;-66
2024/02/01 10:56:13;;;;;;;5.53;3.93;;;5.70;99.90;;;;;;4993019;28;20677;-66
2024/02/01 10:58:43;;;;;;;5.63;5.10;;;5.60;99.90;;;;;;4994684;28;20242;-71
2024/02/01 11:01:13;;;;;;;8.23;4.30;;;5.60;99.90;;;;;;4994195;28;20304;-69
2024/02/01 11:03:43;;;;;;;5.80;4.27;;;5.80;99.90;;;;;;4992907;28;20207;-65
2024/02/01 11:06:11;;;;;;;6.10;3.83;;;5.80;99.90;;;;;;4993018;28;20207;-65
2024/02/01 11:08:38;;;;;;;4.23;3.73;;;5.90;99.90;;;;;;4992573;28;20205;-68
2024/02/01 11:11:16;;;;;;;4.00;3.40;;;5.80;99.90;;;;;;4991090;28;20256;-59
2024/02/01 11:13:46;;;;;;;6.47;4.03;;;6.70;99.90;;;;;;4991386;28;20323;-59
2024/02/01 11:16:15;;;;;;;5.03;4.00;;;5.90;99.90;;;;;;4990669;28;20198;-59
2024/02/01 11:18:50;;;;;;;9.37;4.60;;;6.50;99.90;;;;;;4991006;28;20206;-59
2024/02/01 11:21:29;;;;;;;8.17;4.23;;;6.00;99.90;;;;;;4990662;28;20221;-59
2024/02/01 11:24:05;;;;;;;10.47;4.87;;;6.10;99.90;;;;;;4989850;28;20227;-59
2024/02/01 11:26:39;;;;;;;7.30;4.23;;;6.00;99.90;;;;;;4991126;28;20289;-59
2024/02/01 11:29:08;;;;;;;8.87;4.40;;;6.10;99.90;;;;;;4992339;28;20205;-59
2024/02/01 11:31:37;;;;;;;6.57;4.10;;;6.00;99.90;;;;;;4993748;28;20582;-59
2024/02/01 11:34:06;;;;;;;6.37;4.20;;;6.10;99.90;;;;;;4992349;28;20672;-59
2024/02/01 11:36:34;;;;;;;7.13;4.80;;;6.30;99.90;;;;;;4992507;28;20295;-59
2024/02/01 11:39:02;;;;;;;12.07;5.73;;;5.90;99.90;;;;;;4992380;28;20310;-59
2024/02/01 11:41:30;;;;;;;5.53;5.03;;;;;;;;;;4992316;28;20229;-59
2024/02/01 11:43:58;;;;;;;6.17;4.77;;;5.80;99.90;;;;;;4992831;28;20203;-58
2024/02/01 11:46:26;;;;;;;7.37;4.03;;;5.90;99.90;;;;;;5010741;28;20284;-59
2024/02/01 11:48:54;;;;;;;7.03;4.57;;;5.90;99.90;;;;;;5012619;28;20261;-59
2024/02/01 11:51:21;;;;;;;5.37;4.60;;;5.70;99.90;;;;;;5011659;28;20240;-60
2024/02/01 11:53:51;;;;;;;5.47;5.03;;;5.60;99.90;;;;;;5013409;28;20207;-59
2024/02/01 11:56:21;;;;;;;5.20;4.10;;;5.50;99.90;;;;;;5011951;28;20212;-59
2024/02/01 11:58:48;;;;;;;5.77;4.10;;;5.90;99.90;;;;;;5019807;28;20196;-59
2024/02/01 12:01:16;;;;;;;6.23;5.00;;;5.50;99.90;;;;;;5031331;28;20278;-59
2024/02/01 12:03:50;;;;;;;6.37;5.63;;;5.60;99.90;;;;;;5030829;28;20210;-59
2024/02/01 12:06:22;;;;;;;10.00;6.00;;;5.50;99.90;;;;;;5031412;28;20270;-59
2024/02/01 12:08:49;;;;;;;8.37;6.20;;;5.60;99.90;;;;;;5031332;28;20215;-59
2024/02/01 12:11:17;;;;;;;11.53;5.33;;;5.70;99.90;;;;;;5031369;28;20238;-59
2024/02/01 12:13:48;;;;;;;10.70;7.13;;;5.70;99.90;;;;;;5032757;28;20216;-59
2024/02/01 12:16:25;;;;;;;6.87;5.10;;;5.70;99.90;;;;;;5018217;28;20284;-59
2024/02/01 12:18:53;;;;;;;10.83;7.07;;;;;;;;;;5015467;28;20591;-59
2024/02/01 12:21:26;;;;;;;9.67;5.37;;;5.60;99.90;;;;;;5015535;28;20656;-59
2024/02/01 12:23:56;;;;;;;6.17;5.57;;;5.70;99.90;;;;;;5011998;28;20287;-59
2024/02/01 12:26:25;;;;;;;11.20;5.77;;;5.60;99.90;;;;;;5015022;28;20204;-59
2024/02/01 12:28:52;;;;;;;6.33;4.80;;;5.80;99.90;;;;;;5013116;28;20211;-59
2024/02/01 12:31:19;;;;;;;5.03;4.70;;;5.70;99.90;;;;;;5014663;28;20217;-59
2024/02/01 12:33:46;;;;;;;7.83;4.50;;;5.60;99.90;;;;;;5014156;28;20205;-59
2024/02/01 12:36:13;;;;;;;8.27;5.83;;;5.50;99.90;;;;;;5014785;28;20204;-59
2024/02/01 12:38:44;;;;;;;9.83;6.20;;;5.60;99.90;;;;;;5015178;28;20251;-59
2024/02/01 12:41:11;;;;;;;11.60;5.53;;;5.70;99.90;;;;;;5014668;28;20229;-59
2024/02/01 12:43:38;;;;;;;6.50;5.33;;;5.50;99.90;;;;;;5014059;28;20206;-59
2024/02/01 12:46:05;;;;;;;9.03;4.77;;;5.60;99.90;;;;;;5014832;28;20286;-59
2024/02/01 12:48:36;;;;;;;7.17;5.30;;;5.70;99.90;;;;;;5005074;28;20727;-59
2024/02/01 12:51:03;;;;;;;8.03;5.03;;;5.60;99.90;;;;;;4995162;28;20222;-59
2024/02/01 12:53:30;;;;;;;6.73;4.90;;;5.60;99.90;;;;;;4994440;28;20208;-59
2024/02/01 12:55:58;;;;;;;12.17;4.53;;;5.60;99.90;;;;;;4994936;28;20258;-59
2024/02/01 12:58:25;;;;;;;6.67;4.03;;;5.60;99.90;;;;;;4994878;28;20881;-59
2024/02/01 13:00:53;;;;;;;6.87;4.20;;;5.70;99.90;;;;;;4994806;28;20221;-59
2024/02/01 13:03:20;;;;;;;6.67;4.53;;;5.70;99.90;;;;;;4994075;28;20350;-59
2024/02/01 13:05:47;;;;;;;10.13;6.00;;;5.60;99.90;;;;;;4998716;28;20280;-59
2024/02/01 13:08:15;;;;;;;5.70;4.70;;;5.70;99.90;;;;;;5031441;28;20287;-59
2024/02/01 13:10:44;;;;;;;8.63;5.50;;;5.70;99.90;;;;;;5034101;28;20248;-59
2024/02/01 13:13:12;;;;;;;7.80;4.87;;;5.70;99.90;;;;;;5033311;28;20220;-59
2024/02/01 13:15:46;;;;;;;6.10;4.73;;;5.70;99.90;;;;;;5033938;28;20206;-59
2024/02/01 13:18:13;;;;;;;5.37;4.20;;;5.90;99.90;;;;;;5033961;28;20214;-59
2024/02/01 13:20:40;;;;;;;11.77;5.47;;;5.80;99.90;;;;;;5029913;28;20334;-59
2024/02/01 13:23:09;;;;;;;8.77;4.90;;;5.80;99.90;;;;;;5026774;28;20246;-59
2024/02/01 13:25:38;;;;;;;6.87;5.50;;;5.80;99.90;;;;;;5033690;28;20314;-59
2024/02/01 13:28:08;;;;;;;7.47;4.70;;;5.80;99.90;;;;;;5033704;28;20205;-59
2024/02/01 13:30:39;;;;;;;6.77;4.57;;;5.80;99.90;;;;;;5033708;28;20232;-59
2024/02/01 13:33:07;;;;;;;12.33;6.63;;;5.70;99.90;;;;;;5033380;28;20203;-59
2024/02/01 13:35:36;;;;;;;6.30;5.70;;;5.90;99.90;;;;;;5033810;28;20254;-59
2024/02/01 13:38:06;;;;;;;9.13;5.70;;;5.80;99.90;;;;;;5023793;28;20205;-59